createdAt,value
2017-04-24T00:00:41.443Z,8.03
2017-04-24T00:01:41.394Z,7.99
2017-04-24T00:02:41.414Z,7.94
2017-04-24T00:03:41.380Z,7.97
2017-04-24T00:04:41.021Z,7.88
2017-04-24T00:05:41.311Z,7.76
2017-04-24T00:06:40.989Z,7.78
2017-04-24T00:07:41.616Z,7.78
2017-04-24T00:08:41.252Z,7.79
2017-04-24T00:09:41.591Z,7.9
2017-04-24T00:10:41.193Z,7.88
2017-04-24T00:11:41.510Z,7.85
2017-04-24T00:12:41.159Z,7.94
2017-04-24T00:13:41.155Z,8.01
2017-04-24T00:14:41.495Z,7.9
2017-04-24T00:15:41.100Z,7.86
2017-04-24T00:16:41.064Z,7.67
2017-04-24T00:17:41.092Z,7.79
2017-04-24T00:18:40.711Z,7.72
2017-04-24T00:19:41.335Z,7.76
2017-04-24T00:20:41.282Z,7.76
2017-04-24T00:21:40.992Z,7.76
2017-04-24T00:22:41.252Z,7.75
2017-04-24T00:23:41.272Z,7.72
2017-04-24T00:24:41.262Z,7.83
2017-04-24T00:25:40.874Z,7.93
2017-04-24T00:26:41.142Z,7.82
2017-04-24T00:27:41.133Z,7.86
2017-04-24T00:28:41.104Z,7.9
2017-04-24T00:29:41.104Z,7.94
2017-04-24T00:30:41.066Z,7.93
2017-04-24T00:31:41.037Z,7.97
2017-04-24T00:32:40.422Z,8
2017-04-24T00:33:40.700Z,7.99
2017-04-24T00:34:40.973Z,8.14
2017-04-24T00:35:40.954Z,8.01
2017-04-24T00:36:40.920Z,7.97
2017-04-24T00:37:40.281Z,7.94
2017-04-24T00:38:40.565Z,8.03
2017-04-24T00:39:40.562Z,7.9
2017-04-24T00:40:40.522Z,7.68
2017-04-24T00:41:40.490Z,7.39
2017-04-24T00:42:40.492Z,7.2
2017-04-24T00:43:40.463Z,7.08
2017-04-24T00:44:40.420Z,6.99
2017-04-24T00:45:40.402Z,6.84
2017-04-24T00:46:40.380Z,6.86
2017-04-24T00:47:40.068Z,6.75
2017-04-24T00:48:40.643Z,6.77
2017-04-24T00:49:40.643Z,6.84
2017-04-24T00:50:40.610Z,6.81
2017-04-24T00:51:40.583Z,6.86
2017-04-24T00:52:40.242Z,6.99
2017-04-24T00:53:40.534Z,6.87
2017-04-24T00:54:40.504Z,6.9
2017-04-24T00:55:40.481Z,6.96
2017-04-24T00:56:40.446Z,6.93
2017-04-24T00:57:39.823Z,7.06
2017-04-24T00:58:40.119Z,7.06
2017-04-24T00:59:40.080Z,7.05
2017-04-24T01:00:40.060Z,6.91
2017-04-24T01:01:40.345Z,6.72
2017-04-24T01:02:40.313Z,6.62
2017-04-24T01:03:40.303Z,6.59
2017-04-24T01:04:40.041Z,6.44
2017-04-24T01:05:39.938Z,6.48
2017-04-24T01:06:40.221Z,6.62
2017-04-24T01:07:40.191Z,6.41
2017-04-24T01:08:40.182Z,6.54
2017-04-24T01:09:39.841Z,6.66
2017-04-24T01:10:40.141Z,6.6
2017-04-24T01:11:40.111Z,6.69
2017-04-24T01:12:39.574Z,6.8
2017-04-24T01:13:40.051Z,6.83
2017-04-24T01:14:40.028Z,6.96
2017-04-24T01:15:39.709Z,7.01
2017-04-24T01:16:40.001Z,6.9
2017-04-24T01:17:39.972Z,6.87
2017-04-24T01:18:39.952Z,7.02
2017-04-24T01:19:39.621Z,6.86
2017-04-24T01:20:39.903Z,6.73
2017-04-24T01:21:39.870Z,6.77
2017-04-24T01:22:39.844Z,6.86
2017-04-24T01:23:39.823Z,6.88
2017-04-24T01:24:39.495Z,6.93
2017-04-24T01:25:39.784Z,6.98
2017-04-24T01:26:39.141Z,6.87
2017-04-24T01:27:39.730Z,6.73
2017-04-24T01:28:39.705Z,6.59
2017-04-24T01:29:39.063Z,6.57
2017-04-24T01:30:39.668Z,6.66
2017-04-24T01:31:39.334Z,6.75
2017-04-24T01:32:39.621Z,6.83
2017-04-24T01:33:39.591Z,6.9
2017-04-24T01:34:39.613Z,6.88
2017-04-24T01:35:39.583Z,6.98
2017-04-24T01:36:38.908Z,7.08
2017-04-24T01:37:39.191Z,7.08
2017-04-24T01:38:38.927Z,7.11
2017-04-24T01:39:39.463Z,7.02
2017-04-24T01:40:39.431Z,7.04
2017-04-24T01:41:39.092Z,7.09
2017-04-24T01:42:39.382Z,7.02
2017-04-24T01:43:39.053Z,6.91
2017-04-24T01:44:39.101Z,6.83
2017-04-24T01:45:39.317Z,6.81
2017-04-24T01:46:38.972Z,6.81
2017-04-24T01:47:39.291Z,6.69
2017-04-24T01:48:38.932Z,6.68
2017-04-24T01:49:38.901Z,6.63
2017-04-24T01:50:38.579Z,6.7
2017-04-24T01:51:39.162Z,6.7
2017-04-24T01:52:38.832Z,6.72
2017-04-24T01:53:38.818Z,6.55
2017-04-24T01:54:38.799Z,6.68
2017-04-24T01:55:38.761Z,6.63
2017-04-24T01:56:39.051Z,6.4
2017-04-24T01:57:38.719Z,6.4
2017-04-24T01:58:39.021Z,6.21
2017-04-24T01:59:39.093Z,6.35
2017-04-24T02:00:38.952Z,6.21
2017-04-24T02:01:38.627Z,6.29
2017-04-24T02:02:38.621Z,6.06
2017-04-24T02:03:38.953Z,6.11
2017-04-24T02:04:38.552Z,6.25
2017-04-24T02:05:38.831Z,6.4
2017-04-24T02:06:38.502Z,6.35
2017-04-24T02:07:38.791Z,6.43
2017-04-24T02:08:38.762Z,6.45
2017-04-24T02:09:38.732Z,6.45
2017-04-24T02:10:38.724Z,6.51
2017-04-24T02:11:38.381Z,6.37
2017-04-24T02:12:38.712Z,6.47
2017-04-24T02:13:38.652Z,6.44
2017-04-24T02:14:38.641Z,6.5
2017-04-24T02:15:38.611Z,6.47
2017-04-24T02:16:38.583Z,6.17
2017-04-24T02:17:38.560Z,6.13
2017-04-24T02:18:38.552Z,6.1
2017-04-24T02:19:38.576Z,6.13
2017-04-24T02:20:38.182Z,6.18
2017-04-24T02:21:38.473Z,5.96
2017-04-24T02:22:38.126Z,6.14
2017-04-24T02:23:38.457Z,6.26
2017-04-24T02:24:38.384Z,6.37
2017-04-24T02:25:38.081Z,6.29
2017-04-24T02:26:38.363Z,6.26
2017-04-24T02:27:38.141Z,6.3
2017-04-24T02:28:38.310Z,6.1
2017-04-24T02:29:38.284Z,6.32
2017-04-24T02:30:38.232Z,6.3
2017-04-24T02:31:37.921Z,6.32
2017-04-24T02:32:37.572Z,6.37
2017-04-24T02:33:37.893Z,6.37
2017-04-24T02:34:37.835Z,6.41
2017-04-24T02:35:37.831Z,6.37
2017-04-24T02:36:37.802Z,6.43
2017-04-24T02:37:38.084Z,6.22
2017-04-24T02:38:37.771Z,6.29
2017-04-24T02:39:38.032Z,6.44
2017-04-24T02:40:37.701Z,6.32
2017-04-24T02:41:37.674Z,6.3
2017-04-24T02:42:37.701Z,6.36
2017-04-24T02:43:37.618Z,6.45
2017-04-24T02:44:37.916Z,6.45
2017-04-24T02:45:37.572Z,6.45
2017-04-24T02:46:37.612Z,6.26
2017-04-24T02:47:37.842Z,6.3
2017-04-24T02:48:37.513Z,6.37
2017-04-24T02:49:37.571Z,6.47
2017-04-24T02:50:37.142Z,6.47
2017-04-24T02:51:37.140Z,6.43
2017-04-24T02:52:37.511Z,6.44
2017-04-24T02:53:37.391Z,6.59
2017-04-24T02:54:37.391Z,6.65
2017-04-24T02:55:37.639Z,6.47
2017-04-24T02:56:37.321Z,6.45
2017-04-24T02:57:37.292Z,6.44
2017-04-24T02:58:37.573Z,6.27
2017-04-24T02:59:37.263Z,6.44
2017-04-24T03:00:37.522Z,6.36
2017-04-24T03:01:37.492Z,6.22
2017-04-24T03:02:37.479Z,5.98
2017-04-24T03:03:37.451Z,5.81
2017-04-24T03:04:37.421Z,6
2017-04-24T03:05:37.095Z,5.99
2017-04-24T03:06:37.071Z,5.96
2017-04-24T03:07:37.364Z,5.9
2017-04-24T03:08:37.354Z,6.03
2017-04-24T03:09:36.687Z,6.03
2017-04-24T03:10:37.279Z,6.11
2017-04-24T03:11:37.262Z,6.26
2017-04-24T03:12:36.624Z,6.32
2017-04-24T03:13:36.915Z,6.25
2017-04-24T03:14:36.895Z,6.25
2017-04-24T03:15:36.873Z,6.26
2017-04-24T03:16:37.180Z,6.17
2017-04-24T03:17:36.821Z,6.26
2017-04-24T03:18:37.084Z,6.29
2017-04-24T03:19:36.763Z,6.27
2017-04-24T03:20:37.045Z,6.21
2017-04-24T03:21:37.034Z,6.25
2017-04-24T03:22:36.691Z,6.1
2017-04-24T03:23:36.671Z,5.96
2017-04-24T03:24:36.984Z,6.06
2017-04-24T03:25:36.922Z,5.99
2017-04-24T03:26:36.281Z,5.98
2017-04-24T03:27:36.889Z,5.95
2017-04-24T03:28:36.856Z,5.93
2017-04-24T03:29:36.831Z,5.9
2017-04-24T03:30:36.501Z,5.93
2017-04-24T03:31:36.483Z,6.06
2017-04-24T03:32:36.753Z,6.06
2017-04-24T03:33:36.421Z,6.14
2017-04-24T03:34:36.400Z,6.18
2017-04-24T03:35:36.688Z,6.07
2017-04-24T03:36:36.352Z,6.25
2017-04-24T03:37:36.631Z,5.98
2017-04-24T03:38:36.315Z,5.98
2017-04-24T03:39:36.603Z,6.11
2017-04-24T03:40:36.303Z,6.11
2017-04-24T03:41:36.541Z,6.11
2017-04-24T03:42:36.511Z,6
2017-04-24T03:43:35.910Z,6.08
2017-04-24T03:44:36.517Z,6.04
2017-04-24T03:45:36.441Z,6.07
2017-04-24T03:46:36.116Z,6.17
2017-04-24T03:47:36.393Z,5.95
2017-04-24T03:48:36.077Z,6.03
2017-04-24T03:49:36.048Z,6.07
2017-04-24T03:50:36.064Z,6.18
2017-04-24T03:51:36.029Z,6.11
2017-04-24T03:52:36.312Z,6.11
2017-04-24T03:53:36.243Z,6.08
2017-04-24T03:54:36.303Z,6.1
2017-04-24T03:55:36.202Z,6.11
2017-04-24T03:56:35.923Z,6.11
2017-04-24T03:57:36.153Z,5.99
2017-04-24T03:58:36.143Z,6.18
2017-04-24T03:59:36.163Z,6.18
2017-04-24T04:00:35.787Z,6.25
2017-04-24T04:01:36.147Z,6.22
2017-04-24T04:02:36.125Z,6.27
2017-04-24T04:03:36.023Z,6.29
2017-04-24T04:04:35.992Z,6.29
2017-04-24T04:05:35.354Z,6.4
2017-04-24T04:06:35.952Z,6.1
2017-04-24T04:07:35.613Z,6.07
2017-04-24T04:08:35.663Z,6.27
2017-04-24T04:09:35.981Z,6.27
2017-04-24T04:10:35.861Z,6.25
2017-04-24T04:11:35.882Z,6.04
2017-04-24T04:12:35.501Z,6.1
2017-04-24T04:13:35.601Z,6.13
2017-04-24T04:14:35.441Z,6.06
2017-04-24T04:15:35.729Z,6.07
2017-04-24T04:16:35.402Z,6
2017-04-24T04:17:35.815Z,6.1
2017-04-24T04:18:35.361Z,6.16
2017-04-24T04:19:35.012Z,6.16
2017-04-24T04:20:35.745Z,5.96
2017-04-24T04:21:35.571Z,5.81
2017-04-24T04:22:35.242Z,5.8
2017-04-24T04:23:35.206Z,5.81
2017-04-24T04:24:35.202Z,5.67
2017-04-24T04:25:35.216Z,5.63
2017-04-24T04:26:34.834Z,5.52
2017-04-24T04:27:35.432Z,5.46
2017-04-24T04:28:35.104Z,5.55
2017-04-24T04:29:35.108Z,5.75
2017-04-24T04:30:35.341Z,5.83
2017-04-24T04:31:35.035Z,5.99
2017-04-24T04:32:35.302Z,5.93
2017-04-24T04:33:35.284Z,5.98
2017-04-24T04:34:34.644Z,6.03
2017-04-24T04:35:35.229Z,5.99
2017-04-24T04:36:35.212Z,6.1
2017-04-24T04:37:34.873Z,6.21
2017-04-24T04:38:35.172Z,5.99
2017-04-24T04:39:34.837Z,5.95
2017-04-24T04:40:34.806Z,5.98
2017-04-24T04:41:34.482Z,5.98
2017-04-24T04:42:35.073Z,5.93
2017-04-24T04:43:34.734Z,5.99
2017-04-24T04:44:35.012Z,5.95
2017-04-24T04:45:34.383Z,5.95
2017-04-24T04:46:34.679Z,5.81
2017-04-24T04:47:34.942Z,5.77
2017-04-24T04:48:34.923Z,5.75
2017-04-24T04:49:34.583Z,5.62
2017-04-24T04:50:34.880Z,5.77
2017-04-24T04:51:34.547Z,5.8
2017-04-24T04:52:34.824Z,5.85
2017-04-24T04:53:34.192Z,5.95
2017-04-24T04:54:34.772Z,5.9
2017-04-24T04:55:34.447Z,5.96
2017-04-24T04:56:34.131Z,5.98
2017-04-24T04:57:34.083Z,6.16
2017-04-24T04:58:34.073Z,6.21
2017-04-24T04:59:34.343Z,6.08
2017-04-24T05:00:34.332Z,6.1
2017-04-24T05:01:34.294Z,6.25
2017-04-24T05:02:34.586Z,6.18
2017-04-24T05:03:34.264Z,6.36
2017-04-24T05:04:34.566Z,6.25
2017-04-24T05:05:34.509Z,6.29
2017-04-24T05:06:34.186Z,6.32
2017-04-24T05:07:34.452Z,6.37
2017-04-24T05:08:34.430Z,6.43
2017-04-24T05:09:34.412Z,6.47
2017-04-24T05:10:34.082Z,6.5
2017-04-24T05:11:33.754Z,6.51
2017-04-24T05:12:34.342Z,6.57
2017-04-24T05:13:34.051Z,6.45
2017-04-24T05:14:33.745Z,6.43
2017-04-24T05:15:34.271Z,6.45
2017-04-24T05:16:33.933Z,6.41
2017-04-24T05:17:33.923Z,6.37
2017-04-24T05:18:34.255Z,6.41
2017-04-24T05:19:34.196Z,6.48
2017-04-24T05:20:33.851Z,6.51
2017-04-24T05:21:33.820Z,6.57
2017-04-24T05:22:34.103Z,6.48
2017-04-24T05:23:33.823Z,6.47
2017-04-24T05:24:34.122Z,6.47
2017-04-24T05:25:34.042Z,6.3
2017-04-24T05:26:34.034Z,6.27
2017-04-24T05:27:33.994Z,6.25
2017-04-24T05:28:34.062Z,6.25
2017-04-24T05:29:34.042Z,6.41
2017-04-24T05:30:33.974Z,6.41
2017-04-24T05:31:33.947Z,6.44
2017-04-24T05:32:33.575Z,6.6
2017-04-24T05:33:33.843Z,6.65
2017-04-24T05:34:33.843Z,6.69
2017-04-24T05:35:33.843Z,6.83
2017-04-24T05:36:33.808Z,6.75
2017-04-24T05:37:33.442Z,6.8
2017-04-24T05:38:33.882Z,6.78
2017-04-24T05:39:33.719Z,6.68
2017-04-24T05:40:33.744Z,6.43
2017-04-24T05:41:33.663Z,6.48
2017-04-24T05:42:33.720Z,6.27
2017-04-24T05:43:33.304Z,6.36
2017-04-24T05:44:33.353Z,6.55
2017-04-24T05:45:33.282Z,6.57
2017-04-24T05:46:33.543Z,6.69
2017-04-24T05:47:32.893Z,6.7
2017-04-24T05:48:33.202Z,6.93
2017-04-24T05:49:33.177Z,7.05
2017-04-24T05:50:32.822Z,7.12
2017-04-24T05:51:33.430Z,7.06
2017-04-24T05:52:33.386Z,6.94
2017-04-24T05:53:33.368Z,6.93
2017-04-24T05:54:33.402Z,7.04
2017-04-24T05:55:33.011Z,7.19
2017-04-24T05:56:32.692Z,7.19
2017-04-24T05:57:33.274Z,7.08
2017-04-24T05:58:33.253Z,7.11
2017-04-24T05:59:32.923Z,7.19
2017-04-24T06:00:33.268Z,7.05
2017-04-24T06:01:33.192Z,7.01
2017-04-24T06:02:32.855Z,7.05
2017-04-24T06:03:32.829Z,7.14
2017-04-24T06:04:32.803Z,7.21
2017-04-24T06:05:32.788Z,7.11
2017-04-24T06:06:32.782Z,7.14
2017-04-24T06:07:32.743Z,7.31
2017-04-24T06:08:33.023Z,7.44
2017-04-24T06:09:33.012Z,7.2
2017-04-24T06:10:32.979Z,7.2
2017-04-24T06:11:32.651Z,7.29
2017-04-24T06:12:32.634Z,7.44
2017-04-24T06:13:32.325Z,7.55
2017-04-24T06:14:32.915Z,7.57
2017-04-24T06:15:32.864Z,7.39
2017-04-24T06:16:32.540Z,7.56
2017-04-24T06:17:32.824Z,7.47
2017-04-24T06:18:32.498Z,7.29
2017-04-24T06:19:32.773Z,7.44
2017-04-24T06:20:32.774Z,7.48
2017-04-24T06:21:32.415Z,7.55
2017-04-24T06:22:32.706Z,7.76
2017-04-24T06:23:32.072Z,7.68
2017-04-24T06:24:32.373Z,7.82
2017-04-24T06:25:32.324Z,7.93
2017-04-24T06:26:32.622Z,7.91
2017-04-24T06:27:32.602Z,7.76
2017-04-24T06:28:32.578Z,7.86
2017-04-24T06:29:32.244Z,7.76
2017-04-24T06:30:31.911Z,7.63
2017-04-24T06:31:32.213Z,7.73
2017-04-24T06:32:32.473Z,7.83
2017-04-24T06:33:32.152Z,7.88
2017-04-24T06:34:32.442Z,7.78
2017-04-24T06:35:32.093Z,7.75
2017-04-24T06:36:32.085Z,7.86
2017-04-24T06:37:32.192Z,8.06
2017-04-24T06:38:32.033Z,8
2017-04-24T06:39:31.719Z,8.11
2017-04-24T06:40:32.004Z,8.11
2017-04-24T06:41:32.274Z,8.09
2017-04-24T06:42:31.632Z,8
2017-04-24T06:43:32.239Z,8.04
2017-04-24T06:44:32.212Z,8.18
2017-04-24T06:45:31.882Z,8.11
2017-04-24T06:46:31.854Z,8.01
2017-04-24T06:47:31.838Z,8.09
2017-04-24T06:48:31.814Z,8.16
2017-04-24T06:49:32.094Z,8.29
2017-04-24T06:50:32.072Z,8.34
2017-04-24T06:51:32.064Z,8.27
2017-04-24T06:52:31.730Z,8.34
2017-04-24T06:53:31.821Z,8.4
2017-04-24T06:54:32.022Z,8.48
2017-04-24T06:55:31.663Z,8.59
2017-04-24T06:56:31.967Z,8.54
2017-04-24T06:57:31.617Z,8.69
2017-04-24T06:58:31.590Z,8.69
2017-04-24T06:59:31.913Z,8.75
2017-04-24T07:00:31.862Z,8.65
2017-04-24T07:01:31.862Z,8.65
2017-04-24T07:02:31.503Z,8.75
2017-04-24T07:03:31.496Z,8.79
2017-04-24T07:04:31.765Z,8.79
2017-04-24T07:05:31.772Z,8.65
2017-04-24T07:06:31.117Z,8.69
2017-04-24T07:07:31.402Z,8.58
2017-04-24T07:08:31.372Z,8.54
2017-04-24T07:09:31.364Z,8.69
2017-04-24T07:10:31.627Z,8.7
2017-04-24T07:11:31.353Z,8.54
2017-04-24T07:12:31.609Z,8.55
2017-04-24T07:13:31.573Z,8.62
2017-04-24T07:14:31.545Z,8.62
2017-04-24T07:15:31.234Z,8.52
2017-04-24T07:16:31.504Z,8.67
2017-04-24T07:17:31.494Z,8.79
2017-04-24T07:18:31.162Z,8.77
2017-04-24T07:19:31.449Z,8.91
2017-04-24T07:20:31.423Z,8.9
2017-04-24T07:21:31.424Z,8.91
2017-04-24T07:22:31.468Z,9.06
2017-04-24T07:23:31.374Z,9.17
2017-04-24T07:24:31.023Z,9.06
2017-04-24T07:25:31.014Z,9.13
2017-04-24T07:26:31.286Z,8.93
2017-04-24T07:27:30.663Z,9
2017-04-24T07:28:31.245Z,9.14
2017-04-24T07:29:30.923Z,9.16
2017-04-24T07:30:30.894Z,9.06
2017-04-24T07:31:30.862Z,9.17
2017-04-24T07:32:31.158Z,9.17
2017-04-24T07:33:30.854Z,9.13
2017-04-24T07:34:30.504Z,9.16
2017-04-24T07:35:30.783Z,9.19
2017-04-24T07:36:31.094Z,9.32
2017-04-24T07:37:30.442Z,9.34
2017-04-24T07:38:31.044Z,9.27
2017-04-24T07:39:31.001Z,9.38
2017-04-24T07:40:30.986Z,9.46
2017-04-24T07:41:30.963Z,9.47
2017-04-24T07:42:30.955Z,9.65
2017-04-24T07:43:30.923Z,9.65
2017-04-24T07:44:30.905Z,9.82
2017-04-24T07:45:30.875Z,9.78
2017-04-24T07:46:30.854Z,9.85
2017-04-24T07:47:30.533Z,9.72
2017-04-24T07:48:30.499Z,9.71
2017-04-24T07:49:30.491Z,9.74
2017-04-24T07:50:30.779Z,9.92
2017-04-24T07:51:30.441Z,9.9
2017-04-24T07:52:30.475Z,9.97
2017-04-24T07:53:30.403Z,9.6
2017-04-24T07:54:30.747Z,9.74
2017-04-24T07:55:30.053Z,9.87
2017-04-24T07:56:30.394Z,9.86
2017-04-24T07:57:30.323Z,9.9
2017-04-24T07:58:30.314Z,9.92
2017-04-24T07:59:30.274Z,9.95
2017-04-24T08:00:30.608Z,10.08
2017-04-24T08:01:30.551Z,10.05
2017-04-24T08:02:30.241Z,10.16
2017-04-24T08:03:30.493Z,10.1
2017-04-24T08:04:30.222Z,10.34
2017-04-24T08:05:30.453Z,10.38
2017-04-24T08:06:30.482Z,10.38
2017-04-24T08:07:30.103Z,10.53
2017-04-24T08:08:30.467Z,10.59
2017-04-24T08:09:30.065Z,10.57
2017-04-24T08:10:30.404Z,10.72
2017-04-24T08:11:30.027Z,10.67
2017-04-24T08:12:30.375Z,10.74
2017-04-24T08:13:30.394Z,10.71
2017-04-24T08:14:30.382Z,10.6
2017-04-24T08:15:29.990Z,10.4
2017-04-24T08:16:30.335Z,10.4
2017-04-24T08:17:30.274Z,10.57
2017-04-24T08:18:29.970Z,10.6
2017-04-24T08:19:29.863Z,10.66
2017-04-24T08:20:30.252Z,10.75
2017-04-24T08:21:29.822Z,10.98
2017-04-24T08:22:29.810Z,10.82
2017-04-24T08:23:29.787Z,10.89
2017-04-24T08:24:29.507Z,10.85
2017-04-24T08:25:30.136Z,10.92
2017-04-24T08:26:29.723Z,10.85
2017-04-24T08:27:29.715Z,11.14
2017-04-24T08:28:30.053Z,11
2017-04-24T08:29:30.124Z,11.13
2017-04-24T08:30:29.942Z,11.13
2017-04-24T08:31:29.320Z,11.32
2017-04-24T08:32:29.605Z,11.47
2017-04-24T08:33:30.053Z,11.43
2017-04-24T08:34:29.973Z,11.54
2017-04-24T08:35:29.916Z,11.6
2017-04-24T08:36:29.522Z,11.69
2017-04-24T08:37:29.815Z,11.83
2017-04-24T08:38:29.495Z,11.94
2017-04-24T08:39:29.474Z,12.06
2017-04-24T08:40:29.858Z,12.05
2017-04-24T08:41:29.753Z,12.06
2017-04-24T08:42:29.420Z,12.24
2017-04-24T08:43:29.102Z,12.39
2017-04-24T08:44:29.382Z,12.35
2017-04-24T08:45:29.365Z,12.39
2017-04-24T08:46:29.660Z,12.48
2017-04-24T08:47:29.417Z,12.63
2017-04-24T08:48:29.668Z,12.5
2017-04-24T08:49:29.604Z,12.42
2017-04-24T08:50:29.275Z,12.05
2017-04-24T08:51:28.954Z,12.16
2017-04-24T08:52:28.946Z,12.34
2017-04-24T08:53:29.321Z,12.49
2017-04-24T08:54:29.506Z,12.85
2017-04-24T08:55:29.188Z,13.15
2017-04-24T08:56:29.166Z,13.45
2017-04-24T08:57:29.461Z,13.42
2017-04-24T08:58:29.143Z,13.74
2017-04-24T08:59:28.817Z,14.08
2017-04-24T09:00:29.469Z,14.18
2017-04-24T09:01:29.392Z,14.17
2017-04-24T09:02:29.084Z,14.35
2017-04-24T09:03:29.373Z,13.84
2017-04-24T09:04:28.744Z,13.6
2017-04-24T09:05:29.063Z,13.48
2017-04-24T09:06:29.030Z,13.23
2017-04-24T09:07:29.010Z,13.11
2017-04-24T09:08:29.301Z,13.44
2017-04-24T09:09:28.980Z,13.82
2017-04-24T09:10:29.325Z,14.3
2017-04-24T09:11:28.971Z,14.77
2017-04-24T09:12:29.245Z,14.7
2017-04-24T09:13:28.934Z,14.89
2017-04-24T09:14:29.345Z,15
2017-04-24T09:15:29.216Z,14.92
2017-04-24T09:16:28.896Z,15.2
2017-04-24T09:17:29.183Z,15.32
2017-04-24T09:18:29.173Z,15.58
2017-04-24T09:19:28.873Z,15.09
2017-04-24T09:20:28.854Z,15.14
2017-04-24T09:21:29.149Z,14.88
2017-04-24T09:22:29.134Z,15.1
2017-04-24T09:23:29.132Z,14.72
2017-04-24T09:24:29.115Z,14.32
2017-04-24T09:25:29.100Z,14.54
2017-04-24T09:26:28.777Z,14.47
2017-04-24T09:27:29.080Z,14.68
2017-04-24T09:28:29.071Z,14.91
2017-04-24T09:29:29.053Z,14.98
2017-04-24T09:30:28.751Z,15.21
2017-04-24T09:31:29.055Z,15.34
2017-04-24T09:32:29.034Z,15.64
2017-04-24T09:33:29.006Z,15.54
2017-04-24T09:34:29.007Z,15.42
2017-04-24T09:35:28.990Z,15.71
2017-04-24T09:36:28.662Z,15.92
2017-04-24T09:37:28.978Z,15.52
2017-04-24T09:38:28.975Z,15.46
2017-04-24T09:39:28.953Z,15.79
2017-04-24T09:40:28.954Z,16.04
2017-04-24T09:41:28.617Z,15.89
2017-04-24T09:42:28.917Z,15.64
2017-04-24T09:43:28.918Z,15.97
2017-04-24T09:44:28.895Z,15.72
2017-04-24T09:45:28.604Z,15.54
2017-04-24T09:46:28.564Z,15.54
2017-04-24T09:47:28.594Z,15.1
2017-04-24T09:48:28.565Z,15.27
2017-04-24T09:49:28.553Z,15.49
2017-04-24T09:50:28.532Z,15.04
2017-04-24T09:51:28.557Z,15.17
2017-04-24T09:52:28.519Z,15.5
2017-04-24T09:53:28.816Z,15.57
2017-04-24T09:54:28.803Z,15.68
2017-04-24T09:55:28.592Z,15.94
2017-04-24T09:56:28.468Z,15.57
2017-04-24T09:57:28.774Z,15.34
2017-04-24T09:58:28.793Z,15.47
2017-04-24T09:59:28.493Z,15.16
2017-04-24T10:00:28.115Z,15.5
2017-04-24T10:01:28.755Z,15.61
2017-04-24T10:02:28.407Z,15.82
2017-04-24T10:03:28.794Z,15.5
2017-04-24T10:04:28.673Z,15.54
2017-04-24T10:05:28.722Z,16.04
2017-04-24T10:06:28.352Z,16.27
2017-04-24T10:07:28.384Z,15.79
2017-04-24T10:08:28.631Z,16.1
2017-04-24T10:09:28.325Z,16.08
2017-04-24T10:10:28.302Z,16
2017-04-24T10:11:28.590Z,16
2017-04-24T10:12:28.573Z,15.71
2017-04-24T10:13:28.564Z,15.46
2017-04-24T10:14:28.626Z,15.89
2017-04-24T10:15:28.535Z,15.69
2017-04-24T10:16:28.543Z,16.17
2017-04-24T10:17:28.517Z,16.61
2017-04-24T10:18:28.190Z,16.36
2017-04-24T10:19:28.493Z,16.53
2017-04-24T10:20:28.462Z,16.63
2017-04-24T10:21:27.831Z,16.41
2017-04-24T10:22:28.442Z,16.53
2017-04-24T10:23:28.124Z,16.31
2017-04-24T10:24:28.122Z,16.35
2017-04-24T10:25:28.101Z,16.35
2017-04-24T10:26:28.392Z,16.54
2017-04-24T10:27:27.758Z,16.81
2017-04-24T10:28:28.064Z,17.33
2017-04-24T10:29:28.361Z,17.42
2017-04-24T10:30:28.025Z,16.74
2017-04-24T10:31:28.004Z,16.81
2017-04-24T10:32:28.323Z,17.08
2017-04-24T10:33:27.993Z,17.45
2017-04-24T10:34:28.272Z,17.58
2017-04-24T10:35:28.262Z,17.65
2017-04-24T10:36:27.972Z,17.65
2017-04-24T10:37:27.924Z,17.78
2017-04-24T10:38:28.222Z,17.72
2017-04-24T10:39:28.217Z,17.45
2017-04-24T10:40:27.912Z,17.01
2017-04-24T10:41:27.907Z,16.72
2017-04-24T10:42:28.162Z,17.19
2017-04-24T10:43:28.172Z,16.81
2017-04-24T10:44:28.147Z,16.69
2017-04-24T10:45:27.825Z,16.89
2017-04-24T10:46:28.147Z,16.89
2017-04-24T10:47:27.796Z,17.3
2017-04-24T10:48:28.080Z,17.36
2017-04-24T10:49:28.076Z,17.08
2017-04-24T10:50:28.051Z,16.6
2017-04-24T10:51:28.035Z,16.75
2017-04-24T10:52:28.047Z,17.12
2017-04-24T10:53:28.022Z,17.6
2017-04-24T10:54:28.004Z,17.83
2017-04-24T10:55:27.993Z,17.19
2017-04-24T10:56:27.718Z,16.9
2017-04-24T10:57:27.983Z,17.06
2017-04-24T10:58:27.644Z,17.31
2017-04-24T10:59:27.683Z,17.39
2017-04-24T11:00:27.633Z,17.19
2017-04-24T11:01:27.902Z,16.96
2017-04-24T11:02:27.907Z,17.03
2017-04-24T11:03:27.596Z,17.08
2017-04-24T11:04:27.861Z,16.72
2017-04-24T11:05:27.602Z,16.81
2017-04-24T11:06:27.535Z,17.15
2017-04-24T11:07:27.523Z,16.93
2017-04-24T11:08:27.503Z,16.79
2017-04-24T11:09:27.854Z,16.64
2017-04-24T11:10:27.796Z,16.68
2017-04-24T11:11:27.762Z,16.69
2017-04-24T11:12:27.773Z,16.66
2017-04-24T11:13:27.422Z,16.46
2017-04-24T11:14:27.764Z,16.61
2017-04-24T11:15:27.412Z,16.9
2017-04-24T11:16:27.685Z,16.96
2017-04-24T11:17:27.381Z,17.33
2017-04-24T11:18:27.352Z,17.58
2017-04-24T11:19:27.354Z,17.95
2017-04-24T11:20:27.010Z,17.51
2017-04-24T11:21:26.993Z,17.12
2017-04-24T11:22:27.302Z,16.93
2017-04-24T11:23:27.301Z,17.19
2017-04-24T11:24:27.258Z,17.18
2017-04-24T11:25:27.260Z,17.4
2017-04-24T11:26:27.562Z,17.55
2017-04-24T11:27:27.531Z,17.16
2017-04-24T11:28:27.223Z,17.01
2017-04-24T11:29:27.510Z,17.08
2017-04-24T11:30:27.187Z,17.06
2017-04-24T11:31:27.162Z,17.01
2017-04-24T11:32:27.151Z,17.42
2017-04-24T11:33:27.451Z,17.54
2017-04-24T11:34:27.133Z,17.36
2017-04-24T11:35:27.134Z,17.44
2017-04-24T11:36:26.794Z,17.42
2017-04-24T11:37:27.090Z,17.34
2017-04-24T11:38:27.373Z,16.76
2017-04-24T11:39:27.052Z,16.69
2017-04-24T11:40:27.044Z,16.74
2017-04-24T11:41:27.341Z,17.05
2017-04-24T11:42:27.022Z,17.26
2017-04-24T11:43:27.312Z,17.44
2017-04-24T11:44:26.983Z,17.48
2017-04-24T11:45:26.992Z,17.8
2017-04-24T11:46:26.965Z,18.15
2017-04-24T11:47:27.239Z,18.59
2017-04-24T11:48:27.290Z,18.38
2017-04-24T11:49:27.238Z,18.15
2017-04-24T11:50:26.901Z,17.55
2017-04-24T11:51:27.186Z,17.19
2017-04-24T11:52:27.174Z,16.75
2017-04-24T11:53:27.163Z,16.96
2017-04-24T11:54:27.161Z,17.09
2017-04-24T11:55:27.130Z,17.06
2017-04-24T11:56:26.812Z,17.33
2017-04-24T11:57:26.793Z,17.44
2017-04-24T11:58:26.800Z,17.16
2017-04-24T11:59:26.773Z,16.94
2017-04-24T12:00:26.765Z,17.11
2017-04-24T12:01:26.741Z,17.11
2017-04-24T12:02:27.043Z,17.14
2017-04-24T12:03:27.023Z,17.08
2017-04-24T12:04:26.694Z,16.91
2017-04-24T12:05:26.979Z,16.68
2017-04-24T12:06:26.693Z,16.54
2017-04-24T12:07:26.962Z,16.46
2017-04-24T12:08:26.635Z,16.63
2017-04-24T12:09:26.949Z,16.75
2017-04-24T12:10:26.611Z,16.72
2017-04-24T12:11:26.912Z,16.68
2017-04-24T12:12:26.586Z,16.63
2017-04-24T12:13:26.866Z,16.83
2017-04-24T12:14:26.566Z,17.18
2017-04-24T12:15:26.829Z,17.49
2017-04-24T12:16:26.231Z,17.83
2017-04-24T12:17:26.556Z,17.7
2017-04-24T12:18:26.802Z,18.02
2017-04-24T12:19:26.790Z,18.11
2017-04-24T12:20:26.774Z,18.26
2017-04-24T12:21:26.758Z,18.37
2017-04-24T12:22:26.735Z,18.3
2017-04-24T12:23:26.713Z,18.52
2017-04-24T12:24:26.704Z,18.38
2017-04-24T12:25:26.693Z,18.48
2017-04-24T12:26:26.684Z,18.62
2017-04-24T12:27:26.371Z,18.92
2017-04-24T12:28:26.653Z,19.11
2017-04-24T12:29:26.653Z,19.07
2017-04-24T12:30:26.655Z,18.65
2017-04-24T12:31:26.624Z,18.47
2017-04-24T12:32:26.613Z,18.48
2017-04-24T12:33:26.597Z,18.27
2017-04-24T12:34:26.572Z,18.18
2017-04-24T12:35:26.586Z,17.8
2017-04-24T12:36:26.543Z,17.62
2017-04-24T12:37:26.547Z,17.48
2017-04-24T12:38:26.514Z,17.64
2017-04-24T12:39:26.495Z,17.85
2017-04-24T12:40:26.184Z,18.15
2017-04-24T12:41:26.467Z,18.35
2017-04-24T12:42:26.467Z,18.44
2017-04-24T12:43:26.482Z,18.77
2017-04-24T12:44:26.239Z,18.82
2017-04-24T12:45:26.429Z,18.56
2017-04-24T12:46:26.096Z,18.59
2017-04-24T12:47:26.108Z,18.52
2017-04-24T12:48:26.384Z,18.58
2017-04-24T12:49:25.893Z,18.63
2017-04-24T12:50:26.457Z,18.58
2017-04-24T12:51:26.034Z,18.52
2017-04-24T12:52:26.072Z,18.67
2017-04-24T12:53:26.403Z,18.55
2017-04-24T12:54:26.314Z,18.18
2017-04-24T12:55:26.056Z,18.23
2017-04-24T12:56:26.260Z,18.14
2017-04-24T12:57:26.087Z,17.96
2017-04-24T12:58:25.967Z,17.62
2017-04-24T12:59:26.219Z,17.82
2017-04-24T13:00:25.894Z,17.37
2017-04-24T13:01:25.911Z,17.31
2017-04-24T13:02:26.185Z,17.49
2017-04-24T13:03:26.222Z,17.64
2017-04-24T13:04:26.153Z,17.86
2017-04-24T13:05:26.252Z,18.2
2017-04-24T13:06:26.210Z,17.98
2017-04-24T13:07:26.113Z,17.89
2017-04-24T13:08:26.103Z,18
2017-04-24T13:09:25.772Z,18.38
2017-04-24T13:10:26.125Z,18.81
2017-04-24T13:11:25.762Z,19.04